createdAt,value
2018-12-13T00:01:49.556Z,2.20
2018-12-13T00:04:23.501Z,2.20
2018-12-13T00:06:56.749Z,2.20
2018-12-13T00:09:26.995Z,2.10
2018-12-13T00:12:30.195Z,2.10
2018-12-13T00:15:06.121Z,2.00
2018-12-13T00:17:42.945Z,2.20
2018-12-13T00:20:26.853Z,2.30
2018-12-13T00:23:06.961Z,2.40
2018-12-13T00:25:44.868Z,2.50
2018-12-13T00:28:19.139Z,2.50
2018-12-13T00:30:53.195Z,2.50
2018-12-13T00:33:31.158Z,2.50
2018-12-13T00:36:02.178Z,2.60
2018-12-13T00:38:41.967Z,2.60
2018-12-13T00:41:14.797Z,2.60
2018-12-13T00:44:03.499Z,2.60
2018-12-13T00:46:48.840Z,2.60
2018-12-13T00:49:38.206Z,2.60
2018-12-13T00:55:22.817Z,2.60
2018-12-13T00:57:53.322Z,2.60
2018-12-13T01:00:25.212Z,2.60
2018-12-13T01:03:05.589Z,2.60
2018-12-13T01:05:41.901Z,2.60
2018-12-13T01:08:17.906Z,2.60
2018-12-13T01:11:03.505Z,2.50
2018-12-13T01:13:44.300Z,2.50
2018-12-13T01:16:27.403Z,2.50
2018-12-13T01:19:18.598Z,2.40
2018-12-13T01:22:11.574Z,2.50
2018-12-13T01:24:41.413Z,2.40
2018-12-13T01:27:11.671Z,2.50
2018-12-13T01:32:35.737Z,2.50
2018-12-13T01:35:13.255Z,2.50
2018-12-13T01:37:49.247Z,2.40
2018-12-13T01:40:21.700Z,2.50
2018-12-13T01:45:54.903Z,2.50
2018-12-13T01:51:54.878Z,2.60
2018-12-13T01:54:25.369Z,2.60
2018-12-13T01:56:55.034Z,2.60
2018-12-13T01:59:45.574Z,2.60
2018-12-13T02:02:21.797Z,2.60
2018-12-13T02:04:58.573Z,2.60
2018-12-13T02:07:39.014Z,2.60
2018-12-13T02:10:16.666Z,2.60
2018-12-13T02:12:53.741Z,2.60
2018-12-13T02:15:24.777Z,2.60
2018-12-13T02:17:55.476Z,2.60
2018-12-13T02:20:30.353Z,2.60
2018-12-13T02:23:15.524Z,2.70
2018-12-13T02:25:46.269Z,2.70
2018-12-13T02:28:34.562Z,2.70
2018-12-13T02:31:15.651Z,2.70
2018-12-13T02:34:00.632Z,2.70
2018-12-13T02:36:34.359Z,2.70
2018-12-13T02:39:10.011Z,2.70
2018-12-13T02:41:46.654Z,2.80
2018-12-13T02:44:36.974Z,2.80
2018-12-13T02:47:09.841Z,2.80
2018-12-13T02:49:40.969Z,2.80
2018-12-13T02:52:19.154Z,2.80
2018-12-13T02:54:50.735Z,2.80
2018-12-13T02:57:27.614Z,2.80
2018-12-13T03:00:02.095Z,2.70
2018-12-13T03:02:44.969Z,2.70
2018-12-13T03:05:24.512Z,2.70
2018-12-13T03:08:00.698Z,2.70
2018-12-13T03:10:37.748Z,2.70
2018-12-13T03:13:24.037Z,2.70
2018-12-13T03:15:59.182Z,2.60
2018-12-13T03:18:38.830Z,2.60
2018-12-13T03:21:19.128Z,2.60
2018-12-13T03:24:18.002Z,2.50
2018-12-13T03:26:57.867Z,2.60
2018-12-13T03:29:35.255Z,2.60
2018-12-13T03:32:20.279Z,2.60
2018-12-13T03:34:50.982Z,2.60
2018-12-13T03:37:24.553Z,2.60
2018-12-13T03:40:04.486Z,2.70
2018-12-13T03:42:41.476Z,2.60
2018-12-13T03:45:13.501Z,2.70
2018-12-13T03:47:52.996Z,2.60
2018-12-13T03:50:27.677Z,2.60
2018-12-13T03:56:22.701Z,2.60
2018-12-13T03:58:58.856Z,2.60
2018-12-13T04:01:39.024Z,2.50
2018-12-13T04:04:13.891Z,2.40
2018-12-13T04:06:49.926Z,2.40
2018-12-13T04:09:27.184Z,2.40
2018-12-13T04:15:13.709Z,2.50
2018-12-13T04:17:44.135Z,2.40
2018-12-13T04:20:16.216Z,2.40
2018-12-13T04:23:15.344Z,2.40
2018-12-13T04:25:51.401Z,2.40
2018-12-13T04:28:35.478Z,2.30
2018-12-13T04:31:17.707Z,2.40
2018-12-13T04:33:55.039Z,2.40
2018-12-13T04:36:44.013Z,2.30
2018-12-13T04:39:22.714Z,2.30
2018-12-13T04:42:14.933Z,2.30
2018-12-13T04:47:33.051Z,2.20
2018-12-13T04:50:23.435Z,2.20
2018-12-13T04:53:16.714Z,2.10
2018-12-13T04:56:07.011Z,2.10
2018-12-13T05:02:03.911Z,2.00
2018-12-13T05:04:45.493Z,2.00
2018-12-13T05:07:19.562Z,2.00
2018-12-13T05:09:54.434Z,2.10
2018-12-13T05:12:42.115Z,2.10
2018-12-13T05:15:29.098Z,2.20
2018-12-13T05:17:59.814Z,2.20
2018-12-13T05:20:34.643Z,2.20
2018-12-13T05:23:05.348Z,2.20
2018-12-13T05:25:35.289Z,2.20
2018-12-13T05:31:20.988Z,2.30
2018-12-13T05:34:04.159Z,2.40
2018-12-13T05:36:38.671Z,2.30
2018-12-13T05:39:14.822Z,2.40
2018-12-13T05:41:57.237Z,2.40
2018-12-13T05:44:33.079Z,2.40
2018-12-13T05:47:09.962Z,2.50
2018-12-13T05:49:42.264Z,2.50
2018-12-13T05:52:19.613Z,2.50
2018-12-13T05:54:49.228Z,2.50
2018-12-13T05:57:20.168Z,2.50
2018-12-13T05:59:53.716Z,2.50
2018-12-13T06:02:34.253Z,2.50
2018-12-13T06:05:12.835Z,2.40
2018-12-13T06:10:37.986Z,2.40
2018-12-13T06:13:15.803Z,2.40
2018-12-13T06:16:01.896Z,2.40
2018-12-13T06:18:33.616Z,2.40
2018-12-13T06:21:04.141Z,2.50
2018-12-13T06:23:41.258Z,2.50
2018-12-13T06:26:20.456Z,2.50
2018-12-13T06:28:53.155Z,2.60
2018-12-13T06:31:23.377Z,2.60
2018-12-13T06:34:00.879Z,2.60
2018-12-13T06:36:40.727Z,2.60
2018-12-13T06:39:15.066Z,2.60
2018-12-13T06:41:58.681Z,2.70
2018-12-13T06:44:45.744Z,2.70
2018-12-13T06:47:17.459Z,2.70
2018-12-13T06:49:53.105Z,2.70
2018-12-13T06:52:26.393Z,2.70
2018-12-13T06:55:09.125Z,2.70
2018-12-13T06:57:39.426Z,2.70
2018-12-13T07:00:10.969Z,2.70
2018-12-13T07:02:56.668Z,2.70
2018-12-13T07:05:27.150Z,2.80
2018-12-13T07:08:00.921Z,2.80
2018-12-13T07:10:33.152Z,2.90
2018-12-13T07:13:18.352Z,2.90
2018-12-13T07:15:50.801Z,2.90
2018-12-13T07:18:20.307Z,2.90
2018-12-13T07:20:52.790Z,2.90
2018-12-13T07:23:28.595Z,2.90
2018-12-13T07:25:58.552Z,2.90
2018-12-13T07:28:37.105Z,2.90
2018-12-13T07:31:08.966Z,3.00
2018-12-13T07:33:46.716Z,3.00
2018-12-13T07:36:20.772Z,3.00
2018-12-13T07:38:52.860Z,3.00
2018-12-13T07:41:29.778Z,3.00
2018-12-13T07:44:11.706Z,3.10
2018-12-13T07:46:59.937Z,3.00
2018-12-13T07:49:32.417Z,3.00
2018-12-13T07:55:18.484Z,2.90
2018-12-13T07:57:48.128Z,3.00
2018-12-13T08:00:30.082Z,3.00
2018-12-13T08:03:26.995Z,3.00
2018-12-13T08:05:56.536Z,3.00
2018-12-13T08:08:38.666Z,3.00
2018-12-13T08:11:13.412Z,3.00
2018-12-13T08:13:46.914Z,3.00
2018-12-13T08:16:17.502Z,3.00
2018-12-13T08:19:00.327Z,3.00
2018-12-13T08:21:41.794Z,3.00
2018-12-13T08:24:11.495Z,3.00
2018-12-13T08:26:42.673Z,3.00
2018-12-13T08:29:14.228Z,3.00
2018-12-13T08:31:44.066Z,3.00
2018-12-13T08:34:18.962Z,3.00
2018-12-13T08:36:50.451Z,3.10
2018-12-13T08:39:25.169Z,3.10
2018-12-13T08:42:02.698Z,3.10
2018-12-13T08:44:35.410Z,3.00
2018-12-13T08:47:07.109Z,3.10
2018-12-13T08:49:43.700Z,3.10
2018-12-13T08:52:27.780Z,3.10
2018-12-13T08:54:59.682Z,3.00
2018-12-13T08:57:31.546Z,3.10
2018-12-13T09:00:09.927Z,3.10
2018-12-13T09:02:46.899Z,3.20
2018-12-13T09:05:34.724Z,3.20
2018-12-13T09:08:25.124Z,3.20
2018-12-13T09:11:11.375Z,3.30
2018-12-13T09:14:01.008Z,3.30
2018-12-13T09:16:38.815Z,3.20
2018-12-13T09:19:14.608Z,3.30
2018-12-13T09:21:56.608Z,3.30
2018-12-13T09:24:28.304Z,3.10
2018-12-13T09:27:06.156Z,3.10
2018-12-13T09:29:45.108Z,3.10
2018-12-13T09:32:34.605Z,3.00
2018-12-13T09:35:11.419Z,2.90
2018-12-13T09:37:47.872Z,2.90
2018-12-13T09:40:28.687Z,3.00
2018-12-13T09:43:05.093Z,3.00
2018-12-13T09:45:46.664Z,3.00
2018-12-13T09:48:18.906Z,3.10
2018-12-13T09:50:51.840Z,3.20
2018-12-13T09:53:38.412Z,3.20
2018-12-13T09:56:11.615Z,3.20
2018-12-13T09:58:47.636Z,3.20
2018-12-13T10:01:25.050Z,3.10
2018-12-13T10:09:14.663Z,3.20
2018-12-13T10:11:52.215Z,3.20
2018-12-13T10:14:29.749Z,3.10
2018-12-13T10:17:07.038Z,3.10
2018-12-13T10:19:44.042Z,3.00
2018-12-13T10:22:34.478Z,3.00
2018-12-13T10:25:25.530Z,3.00
2018-12-13T10:28:02.087Z,3.00
2018-12-13T10:30:32.921Z,3.00
2018-12-13T10:33:18.308Z,3.10
2018-12-13T10:43:09.644Z,3.30
2018-12-13T10:48:46.679Z,3.40
2018-12-13T10:51:19.240Z,3.40
2018-12-13T10:54:16.659Z,3.30
2018-12-13T10:57:05.625Z,3.30
2018-12-13T10:59:56.892Z,3.30
2018-12-13T11:06:01.536Z,3.20
2018-12-13T11:08:45.386Z,3.40
2018-12-13T11:11:27.595Z,3.40
2018-12-13T11:14:08.874Z,3.50
2018-12-13T11:16:46.044Z,3.50
2018-12-13T11:19:40.973Z,3.60
2018-12-13T11:25:13.274Z,3.80
2018-12-13T11:28:30.670Z,3.90
2018-12-13T11:31:14.069Z,3.90
2018-12-13T11:33:58.743Z,4.00
2018-12-13T11:36:39.184Z,4.00
2018-12-13T11:39:15.611Z,4.10
2018-12-13T11:41:58.106Z,4.10
2018-12-13T11:44:54.490Z,4.20
2018-12-13T11:47:48.194Z,4.20
2018-12-13T11:50:32.158Z,4.20
2018-12-13T11:53:07.659Z,4.20
2018-12-13T11:56:00.025Z,4.10
2018-12-13T11:58:54.622Z,4.10
2018-12-13T12:01:24.498Z,4.10
2018-12-13T12:04:04.060Z,4.10
2018-12-13T12:10:22.084Z,4.20
2018-12-13T12:15:58.177Z,4.10
2018-12-13T12:18:33.762Z,4.10
2018-12-13T12:21:04.093Z,4.00
2018-12-13T12:23:37.990Z,3.90
2018-12-13T12:26:17.457Z,3.90
2018-12-13T12:28:50.656Z,4.00
2018-12-13T12:31:26.683Z,4.00
2018-12-13T12:34:07.068Z,4.10
2018-12-13T12:36:39.655Z,4.10
2018-12-13T12:39:18.538Z,4.10
2018-12-13T12:42:02.065Z,4.10
2018-12-13T12:44:46.647Z,4.10
2018-12-13T12:47:24.442Z,4.10
2018-12-13T12:50:00.708Z,4.10
2018-12-13T12:52:38.923Z,4.20
2018-12-13T12:55:10.057Z,4.10
2018-12-13T12:57:41.967Z,4.10
2018-12-13T13:00:17.803Z,4.10
2018-12-13T13:06:01.801Z,4.10
2018-12-13T13:08:33.611Z,4.20
2018-12-13T13:11:05.271Z,4.20
2018-12-13T13:13:41.532Z,4.10
2018-12-13T13:16:17.430Z,4.10
2018-12-13T13:18:49.917Z,4.00
2018-12-13T13:21:22.825Z,4.00
2018-12-13T13:24:04.792Z,4.10
2018-12-13T13:26:44.007Z,4.10
2018-12-13T13:29:20.154Z,4.10
2018-12-13T13:31:49.582Z,4.10
2018-12-13T13:34:21.375Z,4.10
2018-12-13T13:36:51.493Z,4.10
2018-12-13T13:39:22.226Z,4.10
2018-12-13T13:41:54.406Z,4.20
2018-12-13T13:44:30.757Z,4.10
2018-12-13T13:47:03.806Z,4.20
2018-12-13T13:49:34.207Z,4.20
2018-12-13T13:52:09.460Z,4.20
2018-12-13T13:54:42.208Z,4.20
2018-12-13T13:57:16.767Z,4.20
2018-12-13T13:59:47.147Z,4.10
2018-12-13T14:02:32.520Z,4.10
2018-12-13T14:05:22.013Z,4.10
2018-12-13T14:07:57.663Z,4.00
2018-12-13T14:10:42.628Z,4.00
2018-12-13T14:16:26.684Z,4.00
2018-12-13T14:19:02.216Z,3.90
2018-12-13T14:21:34.346Z,3.90
2018-12-13T14:24:17.388Z,3.80
2018-12-13T14:26:50.911Z,3.80
2018-12-13T14:29:20.951Z,3.80
2018-12-13T14:31:50.582Z,3.80
2018-12-13T14:34:21.175Z,3.80
2018-12-13T14:36:54.748Z,3.80
2018-12-13T14:39:27.765Z,3.90
2018-12-13T14:42:10.392Z,3.90
2018-12-13T14:44:47.845Z,3.90
2018-12-13T14:47:17.683Z,3.90
2018-12-13T14:50:00.876Z,3.90
2018-12-13T14:52:45.102Z,3.80
2018-12-13T14:55:22.008Z,3.90
2018-12-13T14:57:58.794Z,3.80
2018-12-13T15:00:34.230Z,3.70
2018-12-13T15:03:13.257Z,3.80
2018-12-13T15:06:11.697Z,3.80
2018-12-13T15:26:24.166Z,3.60
2018-12-13T15:29:11.331Z,3.60
2018-12-13T15:31:49.891Z,3.60
2018-12-13T15:34:23.496Z,3.60
2018-12-13T15:40:29.788Z,3.70
2018-12-13T15:46:13.095Z,3.70
2018-12-13T15:48:59.171Z,3.80
2018-12-13T15:51:36.669Z,3.80
2018-12-13T15:54:19.477Z,3.90
2018-12-13T15:56:54.958Z,3.90
2018-12-13T15:59:27.020Z,4.00
2018-12-13T16:01:57.285Z,4.00
2018-12-13T16:04:28.653Z,4.00
2018-12-13T16:06:58.669Z,4.00
2018-12-13T16:09:30.121Z,4.00
2018-12-13T16:12:07.019Z,4.00
2018-12-13T16:14:39.509Z,3.90
2018-12-13T16:17:11.270Z,3.90
2018-12-13T16:19:45.739Z,4.00
2018-12-13T16:22:30.934Z,3.90
2018-12-13T16:25:03.690Z,3.90
2018-12-13T16:27:34.357Z,3.90
2018-12-13T16:30:24.165Z,3.80
2018-12-13T16:33:01.130Z,3.80
2018-12-13T16:35:34.672Z,3.80
2018-12-13T16:38:06.409Z,3.80
2018-12-13T16:43:45.306Z,3.70
2018-12-13T16:46:35.656Z,3.70
2018-12-13T16:49:06.733Z,3.70
2018-12-13T16:51:39.338Z,3.70
2018-12-13T16:54:12.254Z,3.70
2018-12-13T16:56:42.780Z,3.70
2018-12-13T16:59:16.110Z,3.70
2018-12-13T17:01:54.342Z,3.70
2018-12-13T17:04:26.738Z,3.70
2018-12-13T17:07:18.058Z,3.70
2018-12-13T17:09:56.861Z,3.70
2018-12-13T17:15:34.997Z,3.70
2018-12-13T17:18:06.159Z,3.70
2018-12-13T17:20:36.452Z,3.70
2018-12-13T17:23:13.243Z,3.70
2018-12-13T17:25:55.246Z,3.70
2018-12-13T17:28:26.127Z,3.70
2018-12-13T17:30:56.383Z,3.70
2018-12-13T17:33:39.032Z,3.60
2018-12-13T17:36:12.298Z,3.60
2018-12-13T17:38:52.385Z,3.60
2018-12-13T17:41:25.410Z,3.60
2018-12-13T17:44:14.144Z,3.60
2018-12-13T17:46:49.853Z,3.60
2018-12-13T17:49:25.532Z,3.60
2018-12-13T17:52:12.959Z,3.60
2018-12-13T17:55:14.518Z,3.50
2018-12-13T17:57:44.709Z,3.60
2018-12-13T18:00:19.253Z,3.60
2018-12-13T18:03:03.520Z,3.60
2018-12-13T18:05:35.262Z,3.60
2018-12-13T18:08:15.100Z,3.60
2018-12-13T18:11:03.867Z,3.60
2018-12-13T18:13:48.858Z,3.60
2018-12-13T18:36:29.852Z,3.60
2018-12-13T18:39:33.393Z,3.60
2018-12-13T18:42:12.110Z,3.70
2018-12-13T18:44:47.920Z,3.70
2018-12-13T18:47:21.391Z,3.70
2018-12-13T18:49:52.655Z,3.70
2018-12-13T18:52:34.018Z,3.70
2018-12-13T18:55:06.503Z,3.80
2018-12-13T18:57:43.015Z,3.70
2018-12-13T19:00:19.086Z,3.70
2018-12-13T19:03:01.248Z,3.80
2018-12-13T19:05:38.011Z,3.70
2018-12-13T19:08:12.530Z,3.70
2018-12-13T19:10:42.918Z,3.70
2018-12-13T19:13:19.584Z,3.70
2018-12-13T19:15:57.539Z,3.70
2018-12-13T19:18:31.201Z,3.60
2018-12-13T19:21:02.038Z,3.60
2018-12-13T19:23:39.142Z,3.70
2018-12-13T19:26:27.607Z,3.70
2018-12-13T19:29:05.605Z,3.70
2018-12-13T19:32:03.542Z,3.70
2018-12-13T19:34:39.279Z,3.70
2018-12-13T19:37:11.846Z,3.60
2018-12-13T19:39:43.604Z,3.70
2018-12-13T19:42:19.973Z,3.70
2018-12-13T19:44:59.416Z,3.70
2018-12-13T19:47:35.574Z,3.70
2018-12-13T19:50:07.490Z,3.70
2018-12-13T19:52:44.413Z,3.70
2018-12-13T19:55:15.145Z,3.70
2018-12-13T19:57:47.181Z,3.80
2018-12-13T20:00:21.557Z,3.80
2018-12-13T20:02:57.976Z,3.80
2018-12-13T20:05:29.784Z,3.70
2018-12-13T20:08:01.638Z,3.80
2018-12-13T20:10:37.936Z,3.70
2018-12-13T20:13:14.513Z,3.80
2018-12-13T20:15:49.986Z,3.80
2018-12-13T20:18:21.361Z,3.80
2018-12-13T20:20:53.952Z,3.80
2018-12-13T20:23:28.467Z,3.80
2018-12-13T20:26:03.985Z,3.80
2018-12-13T20:28:36.824Z,3.90
2018-12-13T20:31:11.804Z,3.90
2018-12-13T20:33:51.988Z,3.80
2018-12-13T20:36:26.275Z,3.80
2018-12-13T20:38:58.716Z,3.70
2018-12-13T20:41:34.242Z,3.70
2018-12-13T20:44:12.039Z,3.70
2018-12-13T20:46:45.893Z,3.70
2018-12-13T20:49:22.029Z,3.70
2018-12-13T20:52:03.355Z,3.70
2018-12-13T20:54:39.415Z,3.70
2018-12-13T20:57:12.306Z,3.70
2018-12-13T20:59:46.415Z,3.70
2018-12-13T21:02:24.691Z,3.70
2018-12-13T21:04:56.862Z,3.60
2018-12-13T21:07:35.474Z,3.60
2018-12-13T21:10:14.900Z,3.60
2018-12-13T21:13:05.560Z,3.70
2018-12-13T21:15:37.604Z,3.70
2018-12-13T21:18:14.817Z,3.70
2018-12-13T21:23:51.481Z,3.70
2018-12-13T21:26:39.961Z,3.70
2018-12-13T21:29:11.570Z,3.70
2018-12-13T21:31:55.309Z,3.70
2018-12-13T21:34:31.709Z,3.70
2018-12-13T21:37:03.749Z,3.70
2018-12-13T21:39:37.452Z,3.70
2018-12-13T21:42:21.601Z,3.60
2018-12-13T21:45:03.381Z,3.70
2018-12-13T21:47:41.526Z,3.70
2018-12-13T21:50:22.519Z,3.60
2018-12-13T21:53:14.826Z,3.60
2018-12-13T21:55:55.419Z,3.60
2018-12-13T22:15:12.428Z,3.40
2018-12-13T22:17:42.618Z,3.40
2018-12-13T22:23:29.165Z,3.40
2018-12-13T22:43:08.723Z,3.30
2018-12-13T22:45:38.628Z,3.30
2018-12-13T22:48:22.754Z,3.40
2018-12-13T22:51:12.131Z,3.40
2018-12-13T22:53:55.072Z,3.40
2018-12-13T22:56:32.657Z,3.50
2018-12-13T23:05:32.042Z,3.50
2018-12-13T23:11:08.696Z,3.60
2018-12-13T23:13:50.460Z,3.60
2018-12-13T23:16:40.590Z,3.60
2018-12-13T23:19:13.673Z,3.60
2018-12-13T23:21:54.522Z,3.50
2018-12-13T23:24:26.232Z,3.50
2018-12-13T23:26:57.478Z,3.50
2018-12-13T23:29:31.419Z,3.50
2018-12-13T23:34:54.787Z,3.50
2018-12-13T23:37:25.345Z,3.50
2018-12-13T23:42:56.091Z,3.50
2018-12-13T23:45:26.591Z,3.50
2018-12-13T23:47:59.663Z,3.50
2018-12-13T23:50:46.096Z,3.40
2018-12-13T23:53:30.091Z,3.40
2018-12-13T23:56:29.436Z,3.40
2018-12-13T23:59:22.232Z,3.50
